Time;durP1;ratioP1;P1;durP2;ratioP2;P2;SDS_P1;SDS_P2;PMS_P1;PMS_P2;Temp;Humidity;BMP_temperature;BMP_pressure;BME280_temperature;BME280_humidity;BME280_pressure;Samples;Min_cycle;Max_cycle;Signal;HPM_P1;HPM_P2
2022/11/20 05:01:59;;;;;;;1.63;1.13;;;1.70;99.90;;;;;;5196412;23;20421;-66
2022/11/20 05:04:26;;;;;;;1.60;1.60;;;1.60;99.90;;;;;;4893342;29;20211;-67
2022/11/20 05:06:52;;;;;;;7.82;3.33;;;1.70;99.90;;;;;;4896356;29;20234;-67
2022/11/20 05:09:19;;;;;;;1.35;1.35;;;1.60;99.90;;;;;;4896888;29;20207;-67
2022/11/20 05:11:46;;;;;;;1.05;1.05;;;1.60;99.90;;;;;;4896810;29;20232;-66
2022/11/20 05:14:12;;;;;;;2.30;2.25;;;1.60;99.90;;;;;;4896620;29;20212;-66
2022/11/20 05:16:39;;;;;;;1.05;1.05;;;1.60;99.90;;;;;;4889062;29;20581;-67
2022/11/20 05:19:07;;;;;;;1.52;1.52;;;1.60;99.90;;;;;;4881041;29;20219;-67
2022/11/20 05:21:34;;;;;;;6.22;4.03;;;1.70;99.90;;;;;;4895848;29;20227;-67
2022/11/20 05:24:01;;;;;;;1.42;1.42;;;1.70;99.90;;;;;;4896271;29;20554;-67
2022/11/20 05:26:27;;;;;;;2.40;2.33;;;1.60;99.90;;;;;;4896578;29;20222;-67
2022/11/20 05:28:54;;;;;;;2.08;2.08;;;1.70;99.90;;;;;;4896483;29;20561;-67
2022/11/20 05:31:22;;;;;;;3.72;2.88;;;1.70;99.90;;;;;;4890805;29;20247;-67
2022/11/20 05:33:49;;;;;;;2.60;2.40;;;1.70;99.90;;;;;;4883429;29;20219;-67
2022/11/20 05:36:18;;;;;;;1.50;1.27;;;1.70;99.90;;;;;;4893273;29;20587;-67
2022/11/20 05:38:45;;;;;;;1.90;1.75;;;1.70;99.90;;;;;;4896574;29;20214;-67
2022/11/20 05:41:13;;;;;;;2.45;2.25;;;1.70;99.90;;;;;;4896541;29;20238;-67
2022/11/20 05:43:42;;;;;;;2.15;1.95;;;1.70;99.90;;;;;;4895982;29;20211;-67
2022/11/20 05:46:11;;;;;;;1.33;1.33;;;1.80;99.90;;;;;;4888156;29;20251;-67
2022/11/20 05:48:38;;;;;;;1.42;1.42;;;1.70;99.90;;;;;;4888102;29;20756;-67
2022/11/20 05:51:07;;;;;;;2.65;2.47;;;1.80;99.90;;;;;;4881414;29;20237;-68
2022/11/20 05:53:36;;;;;;;3.55;3.28;;;1.80;99.90;;;;;;4886477;29;20208;-68
2022/11/20 05:56:05;;;;;;;2.38;2.28;;;1.80;99.90;;;;;;4896238;29;20580;-67
2022/11/20 05:58:32;;;;;;;2.10;2.00;;;1.80;99.90;;;;;;4896377;29;20230;-67
2022/11/20 06:01:05;;;;;;;7.00;4.30;;;1.80;99.90;;;;;;4895814;29;20246;-68
2022/11/20 06:03:32;;;;;;;3.92;3.72;;;1.80;99.90;;;;;;4893730;29;20211;-68
2022/11/20 06:06:00;;;;;;;1.73;1.67;;;1.70;99.90;;;;;;4890112;29;20692;-68
2022/11/20 06:08:26;;;;;;;3.05;2.95;;;1.70;99.90;;;;;;4878682;29;20740;-68
2022/11/20 06:10:54;;;;;;;4.22;3.55;;;1.70;99.90;;;;;;4877159;29;20232;-68
2022/11/20 06:13:21;;;;;;;7.38;3.30;;;1.80;99.90;;;;;;4877261;29;20235;-68
2022/11/20 06:15:50;;;;;;;1.92;1.70;;;1.70;99.90;;;;;;4877398;29;20212;-67
2022/11/20 06:18:16;;;;;;;1.55;1.55;;;1.70;99.90;;;;;;4876179;29;20214;-68
2022/11/20 06:20:43;;;;;;;1.00;1.00;;;1.70;99.90;;;;;;4887545;29;20230;-68
2022/11/20 06:23:10;;;;;;;4.13;3.92;;;1.70;99.90;;;;;;4894949;29;20211;-68
2022/11/20 06:25:38;;;;;;;4.13;3.95;;;1.70;99.90;;;;;;4896106;29;20258;-68
2022/11/20 06:28:07;;;;;;;2.47;2.25;;;1.70;99.90;;;;;;4895832;29;20243;-69
2022/11/20 06:30:34;;;;;;;3.10;2.92;;;1.70;99.90;;;;;;4895901;29;20234;-68
2022/11/20 06:33:00;;;;;;;3.00;2.17;;;1.70;99.90;;;;;;4886601;29;20597;-68
2022/11/20 06:35:27;;;;;;;5.97;2.95;;;1.70;99.90;;;;;;4878228;29;20215;-68
2022/11/20 06:37:54;;;;;;;2.47;2.28;;;1.60;99.90;;;;;;4877213;29;20218;-68
2022/11/20 06:40:20;;;;;;;3.15;3.05;;;1.60;99.90;;;;;;4879023;29;20208;-68
2022/11/20 06:42:47;;;;;;;4.22;3.80;;;1.60;99.90;;;;;;4876628;29;20215;-68
2022/11/20 06:45:16;;;;;;;6.07;2.95;;;1.60;99.90;;;;;;4877147;29;20211;-68
2022/11/20 06:47:42;;;;;;;3.25;3.05;;;1.60;99.90;;;;;;4889224;29;20223;-69
2022/11/20 06:50:09;;;;;;;7.95;3.72;;;1.60;99.90;;;;;;4892222;29;20207;-69
2022/11/20 06:52:36;;;;;;;1.90;1.80;;;1.60;99.90;;;;;;4879764;29;20727;-68
2022/11/20 06:55:03;;;;;;;4.80;4.38;;;1.60;99.90;;;;;;4879569;29;20732;-69
2022/11/20 06:57:30;;;;;;;1.95;1.95;;;1.60;99.90;;;;;;4887120;29;20227;-69
2022/11/20 06:59:57;;;;;;;5.13;3.42;;;1.60;99.90;;;;;;4880428;29;20704;-68
2022/11/20 07:02:25;;;;;;;2.90;2.70;;;1.50;99.90;;;;;;4879808;29;20247;-67
2022/11/20 07:04:51;;;;;;;3.95;2.03;;;1.50;99.90;;;;;;4879463;29;20212;-68
2022/11/20 07:07:18;;;;;;;5.40;3.60;;;1.50;99.90;;;;;;4880204;29;20269;-67
2022/11/20 07:09:45;;;;;;;4.40;4.15;;;1.50;99.90;;;;;;4886827;29;20575;-68
2022/11/20 07:12:14;;;;;;;2.25;2.17;;;1.50;99.90;;;;;;4895439;29;20234;-68
2022/11/20 07:14:41;;;;;;;2.97;2.78;;;1.50;99.90;;;;;;4898666;29;20218;-69
2022/11/20 07:17:08;;;;;;;2.47;2.38;;;1.50;99.90;;;;;;4886366;29;20219;-68
2022/11/20 07:19:36;;;;;;;3.15;2.92;;;1.50;99.90;;;;;;4898113;29;20245;-69
2022/11/20 07:22:03;;;;;;;1.30;1.30;;;1.50;99.90;;;;;;4898780;29;20235;-69
2022/11/20 07:24:29;;;;;;;2.85;2.67;;;1.50;99.90;;;;;;4896213;29;20226;-69
2022/11/20 07:26:56;;;;;;;3.00;2.80;;;1.60;99.90;;;;;;4883388;29;20215;-69
2022/11/20 07:29:23;;;;;;;3.92;3.85;;;1.50;99.90;;;;;;4894377;29;20267;-68
2022/11/20 07:31:50;;;;;;;4.90;4.20;;;1.60;99.90;;;;;;4898302;29;20227;-70
2022/11/20 07:34:16;;;;;;;3.60;3.40;;;1.60;99.90;;;;;;4897642;29;20684;-69
2022/11/20 07:36:44;;;;;;;4.25;3.22;;;1.60;99.90;;;;;;4898560;29;20221;-69
2022/11/20 07:39:11;;;;;;;7.97;5.35;;;1.60;99.90;;;;;;4897555;29;20279;-69
2022/11/20 07:41:38;;;;;;;5.53;5.03;;;1.60;99.90;;;;;;4890596;29;20231;-70
2022/11/20 07:44:05;;;;;;;6.32;4.22;;;1.60;99.90;;;;;;4898191;29;20215;-69
2022/11/20 07:46:32;;;;;;;4.35;3.92;;;1.60;99.90;;;;;;4898650;29;20217;-70
2022/11/20 07:48:58;;;;;;;3.05;2.85;;;1.70;99.90;;;;;;4898235;29;20242;-69
2022/11/20 07:51:25;;;;;;;4.80;4.45;;;1.70;99.90;;;;;;4886563;29;20234;-70
2022/11/20 07:53:53;;;;;;;3.33;3.03;;;1.70;99.90;;;;;;4897846;29;20306;-70
2022/11/20 07:56:20;;;;;;;9.05;4.20;;;1.70;99.90;;;;;;4897631;29;20214;-69
2022/11/20 07:58:47;;;;;;;7.70;3.28;;;1.70;99.90;;;;;;4898445;29;20230;-69
2022/11/20 08:01:14;;;;;;;4.20;3.90;;;1.80;99.90;;;;;;4898124;29;20243;-69
2022/11/20 08:03:40;;;;;;;3.97;3.70;;;1.80;99.90;;;;;;4895378;29;20210;-69
2022/11/20 08:06:08;;;;;;;18.38;5.28;;;1.80;99.90;;;;;;4890024;29;20214;-69
2022/11/20 08:08:35;;;;;;;8.68;5.03;;;1.90;99.90;;;;;;4898226;29;20318;-69
2022/11/20 08:16:31;;;;;;;3.55;3.25;;;2.00;99.90;;;;;;4895400;29;20325;-69
2022/11/20 08:18:58;;;;;;;3.38;3.17;;;2.10;99.90;;;;;;4883773;29;20230;-70
2022/11/20 08:21:25;;;;;;;3.55;3.05;;;2.10;99.90;;;;;;4889809;29;20227;-69
2022/11/20 08:23:51;;;;;;;3.63;2.80;;;2.10;99.90;;;;;;4897074;29;20680;-69
2022/11/20 08:26:19;;;;;;;6.10;4.80;;;2.20;99.90;;;;;;4898319;29;20207;-69
2022/11/20 08:28:46;;;;;;;4.90;4.60;;;2.30;99.90;;;;;;4898024;29;20304;-69
2022/11/20 08:31:13;;;;;;;3.65;2.88;;;2.30;99.90;;;;;;4886562;29;20264;-69
2022/11/20 08:33:39;;;;;;;2.95;2.75;;;2.30;99.90;;;;;;4868646;29;20234;-69
2022/11/20 08:36:07;;;;;;;16.45;11.45;;;2.30;99.90;;;;;;4890632;29;20213;-69
2022/11/20 08:38:34;;;;;;;8.48;7.03;;;2.30;99.90;;;;;;4874040;29;20223;-69
2022/11/20 08:43:48;;;;;;;6.10;5.60;;;2.40;99.90;;;;;;4878637;29;20286;-69
2022/11/20 08:46:15;;;;;;;4.10;3.58;;;2.40;99.90;;;;;;4879130;29;20215;-69
2022/11/20 08:48:41;;;;;;;3.80;3.53;;;2.40;99.90;;;;;;4880783;29;20228;-69
2022/11/20 08:51:08;;;;;;;5.18;4.88;;;2.40;99.90;;;;;;4889386;29;20224;-69
2022/11/20 08:53:35;;;;;;;4.97;3.92;;;2.50;99.90;;;;;;4897194;29;20620;-69
2022/11/20 08:56:01;;;;;;;6.03;5.32;;;2.50;99.90;;;;;;4883224;29;20239;-70
2022/11/20 08:58:28;;;;;;;3.63;3.53;;;2.60;99.90;;;;;;4878498;29;20208;-69
2022/11/20 09:00:56;;;;;;;4.82;4.40;;;2.70;99.90;;;;;;4878354;29;20720;-69
2022/11/20 09:03:23;;;;;;;1.83;1.73;;;2.70;99.90;;;;;;4885376;29;20212;-69
2022/11/20 09:05:50;;;;;;;2.50;2.25;;;2.80;99.90;;;;;;4897314;29;20223;-69
2022/11/20 09:08:17;;;;;;;1.98;1.92;;;2.90;99.90;;;;;;4897371;29;20231;-69
2022/11/20 09:10:43;;;;;;;2.50;2.38;;;3.00;99.90;;;;;;4897658;29;20235;-69
2022/11/20 09:13:10;;;;;;;3.95;3.63;;;3.00;99.90;;;;;;4897213;29;20223;-69
2022/11/20 09:15:37;;;;;;;2.58;2.22;;;3.10;99.90;;;;;;4897729;29;20576;-69
2022/11/20 09:18:05;;;;;;;2.70;2.55;;;3.10;99.90;;;;;;4885068;29;20204;-69
2022/11/20 09:20:32;;;;;;;2.97;2.83;;;3.10;99.90;;;;;;4896443;29;20299;-69
2022/11/20 09:22:58;;;;;;;2.70;2.60;;;3.10;99.90;;;;;;4897221;29;20218;-69
2022/11/20 09:25:25;;;;;;;6.40;3.65;;;3.20;99.90;;;;;;4897560;29;20208;-69
2022/11/20 09:27:56;;;;;;;3.35;3.03;;;3.10;99.90;;;;;;4897378;29;20242;-70
2022/11/20 09:30:22;;;;;;;12.38;2.28;;;3.20;99.90;;;;;;4882421;29;20232;-69
2022/11/20 09:32:49;;;;;;;3.97;3.78;;;3.20;99.90;;;;;;4888609;29;20218;-70
2022/11/20 09:35:17;;;;;;;2.67;1.98;;;3.20;99.90;;;;;;4897211;29;20251;-69
2022/11/20 09:37:44;;;;;;;2.50;2.30;;;3.30;99.90;;;;;;4897597;29;20627;-69
2022/11/20 09:40:19;;;;;;;4.03;3.70;;;3.40;99.90;;;;;;4897333;29;20219;-69
2022/11/20 09:42:51;;;;;;;8.00;3.15;;;3.30;99.90;;;;;;4896553;29;20216;-68
2022/11/20 09:45:31;;;;;;;4.65;3.72;;;3.40;99.90;;;;;;4886617;29;20223;-68
2022/11/20 09:48:21;;;;;;;4.35;4.05;;;3.40;99.90;;;;;;4874721;29;20215;-67
2022/11/20 09:50:53;;;;;;;8.27;3.92;;;3.30;99.90;;;;;;4878128;29;20250;-68
2022/11/20 09:53:30;;;;;;;4.30;3.67;;;3.30;99.90;;;;;;4877027;29;20224;-68
2022/11/20 09:55:57;;;;;;;3.28;3.08;;;3.30;99.90;;;;;;4877490;29;20244;-67
2022/11/20 09:58:32;;;;;;;2.78;2.20;;;3.30;99.90;;;;;;4877801;29;20257;-68
2022/11/20 10:01:03;;;;;;;2.88;2.67;;;3.40;99.90;;;;;;4877356;29;20250;-68
2022/11/20 10:03:40;;;;;;;2.72;2.47;;;3.40;99.90;;;;;;4883300;29;20231;-68
2022/11/20 10:06:14;;;;;;;3.75;3.60;;;3.40;99.90;;;;;;4891433;29;20214;-68
2022/11/20 10:08:45;;;;;;;3.72;3.30;;;3.50;99.90;;;;;;4896242;29;20291;-68
2022/11/20 10:11:27;;;;;;;2.40;2.20;;;3.50;99.90;;;;;;4895986;29;20238;-68
2022/11/20 10:14:04;;;;;;;2.55;2.35;;;3.50;99.90;;;;;;4895477;29;20211;-68
2022/11/20 10:16:38;;;;;;;4.82;4.55;;;3.50;99.90;;;;;;4893169;29;20243;-68
2022/11/20 10:19:19;;;;;;;2.35;2.28;;;3.50;99.90;;;;;;4883631;29;20608;-68
2022/11/20 10:21:57;;;;;;;4.78;2.53;;;3.50;99.90;;;;;;4858690;29;20239;-68
2022/11/20 10:24:44;;;;;;;3.33;3.05;;;3.60;99.90;;;;;;4859962;29;20219;-68
2022/11/20 10:27:32;;;;;;;3.63;3.20;;;3.60;99.90;;;;;;4887940;29;20523;-68
2022/11/20 10:30:03;;;;;;;1.77;1.65;;;3.70;99.90;;;;;;4895761;29;20590;-68
2022/11/20 10:32:36;;;;;;;6.03;3.88;;;3.70;99.90;;;;;;4888238;29;20521;-68
2022/11/20 10:35:08;;;;;;;3.78;3.08;;;3.60;99.90;;;;;;4890706;29;20207;-68
2022/11/20 10:37:38;;;;;;;1.88;1.77;;;3.60;99.90;;;;;;4896255;29;20560;-68
2022/11/20 10:40:19;;;;;;;2.15;2.05;;;3.50;99.90;;;;;;4895911;29;20218;-68
2022/11/20 10:42:50;;;;;;;2.22;1.67;;;3.50;99.90;;;;;;4895432;29;20211;-68
2022/11/20 10:45:29;;;;;;;5.50;2.50;;;3.40;99.90;;;;;;4896075;29;20219;-69
2022/11/20 10:48:05;;;;;;;1.77;1.63;;;3.40;99.90;;;;;;4884357;29;20216;-69
2022/11/20 10:50:33;;;;;;;3.00;2.80;;;3.30;99.90;;;;;;4895078;29;20237;-69
2022/11/20 10:53:09;;;;;;;1.85;1.60;;;3.30;99.90;;;;;;4895429;29;20587;-68
2022/11/20 10:55:45;;;;;;;1.50;1.50;;;3.30;99.90;;;;;;4884660;29;20219;-68
2022/11/20 10:58:17;;;;;;;5.07;4.43;;;3.30;99.90;;;;;;4877276;29;20227;-69
2022/11/20 11:00:44;;;;;;;2.35;2.25;;;3.30;99.90;;;;;;4879984;29;20246;-68
2022/11/20 11:03:23;;;;;;;2.17;2.05;;;3.30;99.90;;;;;;4887209;29;20681;-68
2022/11/20 11:05:54;;;;;;;2.75;2.65;;;3.30;99.90;;;;;;4896589;29;20208;-69
2022/11/20 11:08:23;;;;;;;5.88;3.28;;;3.30;99.90;;;;;;4896633;29;20230;-68
2022/11/20 11:10:54;;;;;;;2.08;1.98;;;3.30;99.90;;;;;;4893593;29;20302;-69
2022/11/20 11:13:22;;;;;;;2.13;1.17;;;3.30;99.90;;;;;;4906273;23;20202;-75
2022/11/20 11:15:49;;;;;;;3.40;3.08;;;3.30;99.90;;;;;;4934039;29;20221;-72
2022/11/20 11:18:24;;;;;;;2.55;2.45;;;3.40;99.90;;;;;;4933155;29;20214;-71
2022/11/20 11:20:52;;;;;;;3.33;3.17;;;3.40;99.90;;;;;;4933341;29;20213;-72
2022/11/20 11:23:32;;;;;;;3.10;2.70;;;3.40;99.90;;;;;;4933213;29;20222;-72
2022/11/20 11:26:00;;;;;;;7.35;2.70;;;3.50;99.90;;;;;;4930764;29;20245;-72
2022/11/20 11:28:28;;;;;;;3.33;2.65;;;3.60;99.90;;;;;;4931354;29;20234;-72
2022/11/20 11:30:55;;;;;;;5.03;4.80;;;3.80;99.90;;;;;;4927879;29;20207;-72
2022/11/20 11:33:24;;;;;;;2.60;2.60;;;3.90;99.90;;;;;;4936823;29;20528;-72
2022/11/20 11:35:53;;;;;;;2.25;2.22;;;4.00;99.90;;;;;;4937242;29;20210;-72
2022/11/20 11:38:23;;;;;;;2.50;2.30;;;4.00;99.90;;;;;;4937253;29;20218;-73
2022/11/20 11:40:56;;;;;;;3.28;3.15;;;4.00;99.90;;;;;;4930988;29;20296;-72
2022/11/20 11:46:32;;;;;;;2.38;2.20;;;4.10;99.90;;;;;;4899506;29;20213;-73
2022/11/20 11:49:00;;;;;;;1.45;1.40;;;4.10;99.90;;;;;;4927781;29;20236;-72
2022/11/20 11:51:32;;;;;;;2.65;2.28;;;4.00;99.90;;;;;;4936829;29;20213;-73
2022/11/20 11:54:01;;;;;;;1.67;1.35;;;4.00;99.90;;;;;;4935614;29;20235;-71
2022/11/20 11:56:29;;;;;;;2.72;2.63;;;3.90;99.90;;;;;;4929465;29;20208;-71
2022/11/20 11:59:01;;;;;;;3.42;2.55;;;3.90;99.90;;;;;;4938582;29;20234;-72
2022/11/20 12:01:33;;;;;;;2.90;2.10;;;3.90;99.90;;;;;;4938730;29;20207;-72
2022/11/20 12:04:05;;;;;;;1.98;1.88;;;4.00;99.90;;;;;;4936978;29;20741;-71
2022/11/20 12:06:35;;;;;;;1.42;1.42;;;4.00;99.90;;;;;;4937842;29;20218;-71
2022/11/20 12:09:04;;;;;;;2.05;2.05;;;4.00;99.90;;;;;;4936813;29;20229;-71
2022/11/20 12:11:39;;;;;;;1.67;1.58;;;4.10;99.90;;;;;;4929832;29;20206;-70
2022/11/20 12:14:15;;;;;;;4.00;1.80;;;4.10;99.90;;;;;;4935677;29;20241;-71
2022/11/20 12:16:42;;;;;;;21.58;3.05;;;4.20;99.90;;;;;;4933052;29;20226;-70
2022/11/20 12:19:12;;;;;;;1.73;1.45;;;4.20;99.90;;;;;;4916981;29;20241;-71
2022/11/20 12:21:52;;;;;;;3.38;2.25;;;4.20;99.90;;;;;;4917840;29;20266;-71
2022/11/20 12:24:43;;;;;;;2.38;2.33;;;4.10;99.90;;;;;;4923556;29;20229;-71
2022/11/20 12:27:40;;;;;;;2.13;2.03;;;4.20;99.90;;;;;;4932730;29;20211;-72
2022/11/20 12:30:10;;;;;;;5.40;4.93;;;4.20;99.90;;;;;;4936168;29;20210;-73
2022/11/20 12:32:55;;;;;;;2.50;2.35;;;4.20;99.90;;;;;;4934975;29;20210;-72
2022/11/20 12:35:36;;;;;;;2.72;2.58;;;4.10;99.90;;;;;;4935531;29;20270;-71
2022/11/20 12:38:23;;;;;;;1.33;1.33;;;4.10;99.90;;;;;;4934709;29;20215;-72
2022/11/20 12:40:57;;;;;;;1.60;1.52;;;4.00;99.90;;;;;;4924501;29;20686;-71
2022/11/20 12:46:32;;;;;;;1.70;1.60;;;3.90;99.90;;;;;;4927984;29;20337;-72
2022/11/20 12:49:29;;;;;;;2.30;1.92;;;3.80;99.90;;;;;;4926413;29;20206;-72
2022/11/20 12:52:12;;;;;;;1.45;1.38;;;3.80;99.90;;;;;;4928879;29;20246;-72
2022/11/20 12:55:09;;;;;;;1.77;1.65;;;3.70;99.90;;;;;;4929579;29;20229;-72
2022/11/20 12:57:43;;;;;;;3.78;2.50;;;3.60;99.90;;;;;;4918051;29;20207;-72
2022/11/20 13:00:16;;;;;;;3.20;3.10;;;3.60;99.90;;;;;;4916957;29;20253;-72
2022/11/20 13:03:07;;;;;;;1.85;1.75;;;3.50;99.90;;;;;;4915732;29;20215;-73
2022/11/20 13:05:44;;;;;;;3.15;2.58;;;3.50;99.90;;;;;;4918513;29;20753;-73
2022/11/20 13:08:17;;;;;;;4.18;1.55;;;3.40;99.90;;;;;;4927199;29;20206;-73
2022/11/20 13:10:50;;;;;;;1.27;1.17;;;3.40;99.90;;;;;;4916221;29;20211;-73
2022/11/20 13:13:23;;;;;;;2.42;2.35;;;3.30;99.90;;;;;;4915270;29;20222;-71
2022/11/20 13:15:59;;;;;;;1.85;1.70;;;3.30;99.90;;;;;;4915981;29;20554;-72
2022/11/20 13:18:26;;;;;;;3.38;3.15;;;3.20;99.90;;;;;;4916155;29;20301;-73
2022/11/20 13:20:53;;;;;;;7.30;2.08;;;3.20;99.90;;;;;;4922203;29;20231;-72
2022/11/20 13:23:27;;;;;;;2.05;1.80;;;3.10;99.90;;;;;;4931105;29;20213;-72
2022/11/20 13:26:06;;;;;;;1.38;1.35;;;3.10;99.90;;;;;;4934381;29;20663;-73
2022/11/20 13:28:33;;;;;;;1.80;1.80;;;3.10;99.90;;;;;;4932482;29;20218;-73
2022/11/20 13:31:01;;;;;;;4.40;2.08;;;3.10;99.90;;;;;;4926697;29;20198;-72
2022/11/20 13:33:32;;;;;;;1.98;1.88;;;3.20;99.90;;;;;;4933405;29;20234;-72
2022/11/20 13:36:01;;;;;;;0.98;0.98;;;3.20;99.90;;;;;;4934083;29;20217;-71
2022/11/20 13:38:29;;;;;;;2.28;2.22;;;3.30;99.90;;;;;;4934365;29;20631;-73
2022/11/20 13:40:57;;;;;;;2.05;1.95;;;3.30;99.90;;;;;;4934049;29;20230;-71
2022/11/20 13:43:35;;;;;;;1.00;1.00;;;3.30;99.90;;;;;;4931545;29;20230;-71
2022/11/20 13:46:05;;;;;;;2.75;2.28;;;3.30;99.90;;;;;;4914852;29;20203;-70
2022/11/20 13:48:34;;;;;;;2.25;2.00;;;3.30;99.90;;;;;;4914805;29;20218;-73
2022/11/20 13:51:12;;;;;;;1.77;1.73;;;3.30;99.90;;;;;;4914924;29;20629;-72
2022/11/20 13:54:02;;;;;;;2.63;2.42;;;3.30;99.90;;;;;;4914460;29;20230;-73
2022/11/20 13:56:38;;;;;;;1.75;1.10;;;3.30;99.90;;;;;;4920381;29;20214;-73
2022/11/20 13:59:14;;;;;;;1.50;1.30;;;3.30;99.90;;;;;;4933869;29;20208;-71
2022/11/20 14:01:46;;;;;;;1.13;1.08;;;3.30;99.90;;;;;;4933808;29;20214;-73
2022/11/20 14:04:16;;;;;;;1.83;1.83;;;3.30;99.90;;;;;;4925067;29;20231;-72
2022/11/20 14:06:45;;;;;;;5.88;1.67;;;3.30;99.90;;;;;;4915265;29;20214;-73
2022/11/20 14:09:12;;;;;;;1.30;1.20;;;3.20;99.90;;;;;;4916641;29;20587;-73
2022/11/20 14:11:47;;;;;;;2.97;2.88;;;3.20;99.90;;;;;;4925916;29;20210;-72
2022/11/20 14:14:16;;;;;;;2.13;2.13;;;3.20;99.90;;;;;;4933971;29;20260;-71
2022/11/20 14:16:48;;;;;;;1.30;1.23;;;3.20;99.90;;;;;;4933963;29;20301;-70
2022/11/20 14:19:30;;;;;;;1.80;1.80;;;3.10;99.90;;;;;;4933939;29;20205;-71
2022/11/20 14:22:10;;;;;;;2.50;1.73;;;3.10;99.90;;;;;;4931840;29;20210;-70
2022/11/20 14:24:37;;;;;;;2.78;1.65;;;3.00;99.90;;;;;;4924619;29;20221;-70
2022/11/20 14:27:03;;;;;;;3.10;2.60;;;3.00;99.90;;;;;;4934129;29;20221;-73
2022/11/20 14:29:35;;;;;;;2.22;1.50;;;3.00;99.90;;;;;;4933889;29;20214;-72
2022/11/20 14:32:04;;;;;;;2.22;2.22;;;2.90;99.90;;;;;;4933438;29;20213;-72
2022/11/20 14:34:36;;;;;;;0.95;0.95;;;2.90;99.90;;;;;;4932488;29;20226;-71
2022/11/20 14:37:06;;;;;;;1.75;1.65;;;2.90;99.90;;;;;;4926231;29;20210;-71
2022/11/20 14:39:35;;;;;;;1.58;1.33;;;2.90;99.90;;;;;;4932729;29;20221;-71
2022/11/20 14:42:02;;;;;;;2.13;2.05;;;2.90;99.90;;;;;;4933576;29;20213;-73
2022/11/20 14:44:32;;;;;;;5.93;2.40;;;2.90;99.90;;;;;;4932638;29;20234;-73
2022/11/20 14:47:00;;;;;;;1.02;0.82;;;2.90;99.90;;;;;;4932992;29;20210;-72
2022/11/20 14:49:30;;;;;;;2.03;1.75;;;2.90;99.90;;;;;;4930455;29;20879;-72
2022/11/20 14:52:01;;;;;;;2.47;2.38;;;2.90;99.90;;;;;;4927811;29;20202;-71
2022/11/20 14:54:29;;;;;;;1.02;1.02;;;2.90;99.90;;;;;;4932751;29;20234;-72
2022/11/20 14:56:57;;;;;;;1.25;1.15;;;2.90;99.90;;;;;;4915779;29;20367;-72
2022/11/20 14:59:25;;;;;;;0.82;0.82;;;2.90;99.90;;;;;;4914454;29;20206;-72
2022/11/20 15:01:57;;;;;;;1.95;0.82;;;2.90;99.90;;;;;;4914532;29;20268;-71
2022/11/20 15:04:24;;;;;;;4.85;3.03;;;2.90;99.90;;;;;;4922046;29;20235;-71
2022/11/20 15:06:54;;;;;;;3.70;3.08;;;2.90;99.90;;;;;;4936332;29;20210;-71
2022/11/20 15:09:22;;;;;;;1.55;1.10;;;2.80;99.90;;;;;;4937326;29;20214;-71
2022/11/20 15:11:55;;;;;;;1.70;1.70;;;2.80;99.90;;;;;;4937153;29;20654;-72
2022/11/20 15:14:23;;;;;;;1.30;1.20;;;2.80;99.90;;;;;;4936593;29;20591;-72
2022/11/20 15:16:49;;;;;;;0.95;0.95;;;2.60;99.90;;;;;;4931963;29;20218;-70
2022/11/20 15:19:19;;;;;;;0.77;0.70;;;2.60;99.90;;;;;;4934300;29;20240;-73
2022/11/20 15:21:46;;;;;;;4.20;2.35;;;2.60;99.90;;;;;;4938154;29;20221;-73
2022/11/20 15:24:14;;;;;;;2.55;2.40;;;2.50;99.90;;;;;;4936737;29;20234;-73
2022/11/20 15:26:42;;;;;;;1.27;1.27;;;2.50;99.90;;;;;;4937283;29;20210;-71
2022/11/20 15:29:10;;;;;;;2.20;1.90;;;2.40;99.90;;;;;;4937073;29;20222;-73
2022/11/20 15:31:37;;;;;;;1.30;1.13;;;2.30;99.90;;;;;;4930686;29;20203;-72
2022/11/20 15:34:07;;;;;;;1.88;1.67;;;2.30;99.90;;;;;;4931666;29;20230;-70
2022/11/20 15:36:33;;;;;;;2.13;2.05;;;2.30;99.90;;;;;;4936937;29;20209;-72
2022/11/20 15:39:00;;;;;;;4.88;1.20;;;2.20;99.90;;;;;;4936839;29;20206;-71
2022/11/20 15:41:28;;;;;;;0.55;0.55;;;2.20;99.90;;;;;;4936742;29;20714;-72
2022/11/20 15:43:55;;;;;;;1.20;1.20;;;2.10;99.90;;;;;;4936464;29;20234;-72
2022/11/20 15:46:27;;;;;;;2.30;1.48;;;2.10;99.90;;;;;;4927853;29;20214;-72
2022/11/20 15:48:56;;;;;;;3.45;3.22;;;2.10;99.90;;;;;;4936794;29;20217;-71
2022/11/20 15:51:27;;;;;;;7.13;3.88;;;2.10;99.90;;;;;;4935643;29;20213;-71
2022/11/20 15:53:55;;;;;;;3.33;3.10;;;2.00;99.90;;;;;;4928015;29;20714;-72
2022/11/20 15:56:21;;;;;;;7.57;3.97;;;2.00;99.90;;;;;;4936692;29;20586;-71
2022/11/20 15:58:50;;;;;;;2.55;2.45;;;2.00;99.90;;;;;;4935631;29;20226;-72
2022/11/20 16:01:18;;;;;;;3.53;3.17;;;2.00;99.90;;;;;;4928575;29;20222;-70
2022/11/20 16:03:45;;;;;;;2.25;2.20;;;2.00;99.90;;;;;;4936371;29;20238;-71
2022/11/20 16:06:12;;;;;;;15.02;5.05;;;2.00;99.90;;;;;;4937075;29;20647;-71
2022/11/20 16:08:39;;;;;;;2.97;2.83;;;2.00;99.90;;;;;;4937582;29;20553;-71
2022/11/20 16:11:06;;;;;;;4.55;4.25;;;2.00;99.90;;;;;;4937160;29;20571;-71
2022/11/20 16:16:23;;;;;;;3.10;2.88;;;2.00;99.90;;;;;;4936334;29;20261;-72
2022/11/20 16:18:49;;;;;;;2.10;2.10;;;2.10;99.90;;;;;;4916411;29;20553;-73
2022/11/20 16:21:16;;;;;;;1.90;1.80;;;2.00;99.90;;;;;;4916982;29;20651;-72
2022/11/20 16:23:43;;;;;;;8.65;2.90;;;2.10;99.90;;;;;;4916923;29;20238;-73
2022/11/20 16:26:11;;;;;;;2.05;1.98;;;2.10;99.90;;;;;;4921690;29;20203;-72
2022/11/20 16:28:38;;;;;;;8.40;3.35;;;2.10;99.90;;;;;;4935773;29;20237;-72
2022/11/20 16:31:10;;;;;;;3.63;1.70;;;2.10;99.90;;;;;;4935812;29;20206;-71
2022/11/20 16:33:38;;;;;;;5.97;3.05;;;2.10;99.90;;;;;;4934632;29;20305;-73
2022/11/20 16:36:09;;;;;;;4.10;3.90;;;2.20;99.90;;;;;;4935769;29;20214;-73
2022/11/20 16:38:36;;;;;;;3.00;2.90;;;2.20;99.90;;;;;;4931635;29;20561;-71
2022/11/20 16:41:04;;;;;;;2.22;2.13;;;2.20;99.90;;;;;;4930579;29;20281;-72
2022/11/20 16:43:30;;;;;;;3.05;2.90;;;2.20;99.90;;;;;;4935102;29;20234;-72
2022/11/20 16:45:57;;;;;;;2.40;1.63;;;2.20;99.90;;;;;;4935541;29;20229;-70
2022/11/20 16:48:24;;;;;;;1.60;1.33;;;2.20;99.90;;;;;;4935361;29;20222;-70
2022/11/20 16:50:53;;;;;;;3.58;3.28;;;2.30;99.90;;;;;;4935235;29;20233;-71
2022/11/20 16:53:22;;;;;;;2.25;2.17;;;2.30;99.90;;;;;;4926186;29;20210;-72
2022/11/20 16:55:48;;;;;;;1.92;1.80;;;2.20;99.90;;;;;;4934935;29;20273;-72
2022/11/20 16:58:16;;;;;;;2.63;2.53;;;2.20;99.90;;;;;;4935277;29;20213;-72
2022/11/20 17:00:43;;;;;;;4.10;2.50;;;2.20;99.90;;;;;;4935168;29;20225;-72
2022/11/20 17:03:09;;;;;;;5.13;1.90;;;2.20;99.90;;;;;;4934489;29;20210;-73
2022/11/20 17:05:36;;;;;;;4.70;3.35;;;2.10;99.90;;;;;;4931825;29;20218;-72
2022/11/20 17:08:05;;;;;;;2.83;2.72;;;2.10;99.90;;;;;;4924041;29;20286;-71
2022/11/20 17:10:31;;;;;;;2.38;2.28;;;2.10;99.90;;;;;;4922158;29;20207;-71
2022/11/20 17:12:58;;;;;;;2.63;1.50;;;2.00;99.90;;;;;;4934295;29;20210;-72
2022/11/20 17:15:25;;;;;;;2.15;2.05;;;2.00;99.90;;;;;;4934200;29;20245;-70
2022/11/20 17:17:51;;;;;;;3.13;2.38;;;2.00;99.90;;;;;;4933770;29;20214;-69
2022/11/20 17:20:18;;;;;;;2.67;2.47;;;1.90;99.90;;;;;;4933784;29;20332;-69
2022/11/20 17:22:45;;;;;;;2.17;2.08;;;1.90;99.90;;;;;;4926792;29;20213;-70
2022/11/20 17:25:13;;;;;;;1.88;1.77;;;1.90;99.90;;;;;;4930828;29;20237;-70
2022/11/20 17:27:39;;;;;;;2.50;2.00;;;1.90;99.90;;;;;;4926171;29;20216;-71
2022/11/20 17:30:07;;;;;;;2.75;2.60;;;1.80;99.90;;;;;;4933957;29;20226;-69
2022/11/20 17:32:34;;;;;;;5.63;3.75;;;1.80;99.90;;;;;;4923287;29;20320;-69
2022/11/20 17:35:00;;;;;;;3.63;3.33;;;1.80;99.90;;;;;;4919582;29;20241;-69
2022/11/20 17:37:27;;;;;;;6.03;3.40;;;1.80;99.90;;;;;;4914924;29;20705;-70
2022/11/20 17:39:54;;;;;;;2.40;2.30;;;1.80;99.90;;;;;;4915022;29;20214;-69
2022/11/20 17:42:28;;;;;;;2.97;2.78;;;1.80;99.90;;;;;;4914996;29;20207;-68
2022/11/20 17:44:57;;;;;;;2.65;2.65;;;1.70;99.90;;;;;;4914296;29;20294;-68
2022/11/20 17:47:24;;;;;;;5.22;3.95;;;1.70;99.90;;;;;;4922171;29;20261;-69
2022/11/20 17:49:51;;;;;;;5.03;4.60;;;1.70;99.90;;;;;;4927088;29;20210;-69
2022/11/20 17:52:17;;;;;;;2.65;2.55;;;1.70;99.90;;;;;;4933816;29;20217;-70
2022/11/20 17:54:44;;;;;;;6.97;4.47;;;1.60;99.90;;;;;;4932888;29;20237;-69
2022/11/20 17:59:56;;;;;;;1.95;1.92;;;1.50;99.90;;;;;;4931349;29;20318;-69
2022/11/20 18:02:24;;;;;;;3.75;3.70;;;1.50;99.90;;;;;;4925192;29;20352;-71
2022/11/20 18:04:51;;;;;;;4.22;3.92;;;1.40;99.90;;;;;;4932483;29;20264;-69
2022/11/20 18:07:18;;;;;;;6.30;5.38;;;1.40;99.90;;;;;;4933275;29;20216;-71
2022/11/20 18:09:44;;;;;;;3.88;3.55;;;1.30;99.90;;;;;;4933341;29;20213;-69
2022/11/20 18:12:11;;;;;;;4.63;3.78;;;1.30;99.90;;;;;;4933497;29;20323;-70
2022/11/20 18:14:38;;;;;;;2.55;2.42;;;1.20;99.90;;;;;;4923730;29;20245;-69
2022/11/20 18:17:07;;;;;;;3.22;3.15;;;1.20;99.90;;;;;;4926004;29;20211;-70
2022/11/20 18:19:36;;;;;;;7.05;3.95;;;1.20;99.90;;;;;;4913848;29;20211;-72
2022/11/20 18:22:04;;;;;;;5.78;5.20;;;1.10;99.90;;;;;;4914262;29;20745;-69
2022/11/20 18:24:30;;;;;;;5.38;4.97;;;1.10;99.90;;;;;;4913986;29;20265;-69
2022/11/20 18:26:57;;;;;;;6.35;5.22;;;1.10;99.90;;;;;;4916744;29;20219;-69
2022/11/20 18:29:25;;;;;;;2.47;2.03;;;1.00;99.90;;;;;;4925522;29;20213;-70
2022/11/20 18:31:51;;;;;;;3.25;3.00;;;1.00;99.90;;;;;;4932992;29;20213;-70